createdAt,value
2022-12-09T00:00:40.475Z,15.40
2022-12-09T00:03:07.554Z,13.87
2022-12-09T00:05:34.252Z,14.57
2022-12-09T00:08:01.111Z,14.13
2022-12-09T00:10:27.766Z,14.83
2022-12-09T00:12:56.124Z,15.57
2022-12-09T00:15:23.140Z,13.37
2022-12-09T00:17:49.964Z,14.03
2022-12-09T00:20:16.959Z,16.00
2022-12-09T00:22:43.618Z,14.30
2022-12-09T00:25:10.299Z,12.30
2022-12-09T00:27:37.228Z,13.13
2022-12-09T00:30:05.001Z,15.83
2022-12-09T00:32:32.463Z,13.20
2022-12-09T00:34:59.093Z,15.03
2022-12-09T00:37:25.945Z,14.50
2022-12-09T00:39:52.566Z,12.83
2022-12-09T00:42:19.170Z,12.60
2022-12-09T00:44:45.834Z,13.03
2022-12-09T00:47:12.598Z,13.53
2022-12-09T00:49:39.469Z,13.27
2022-12-09T00:52:06.406Z,13.53
2022-12-09T00:54:33.348Z,14.33
2022-12-09T00:57:00.139Z,12.80
2022-12-09T00:59:27.049Z,12.73
2022-12-09T01:01:53.768Z,15.00
2022-12-09T01:04:20.956Z,14.13
2022-12-09T01:06:47.711Z,13.50
2022-12-09T01:09:14.360Z,13.97
2022-12-09T01:11:41.638Z,14.13
2022-12-09T01:14:08.314Z,14.63
2022-12-09T01:16:35.962Z,14.67
2022-12-09T01:19:06.924Z,15.63
2022-12-09T01:21:34.907Z,16.03
2022-12-09T01:24:06.138Z,16.30
2022-12-09T01:26:32.828Z,16.17
2022-12-09T01:28:59.505Z,16.63
2022-12-09T01:31:26.592Z,16.73
2022-12-09T01:33:55.383Z,17.87
2022-12-09T01:36:25.520Z,18.27
2022-12-09T01:38:53.188Z,17.00
2022-12-09T01:41:21.952Z,17.03
2022-12-09T01:44:12.367Z,16.30
2022-12-09T01:46:39.322Z,19.03
2022-12-09T01:49:11.063Z,16.17
2022-12-09T01:51:38.632Z,15.10
2022-12-09T01:54:05.714Z,16.40
2022-12-09T01:56:35.009Z,17.00
2022-12-09T01:59:07.620Z,16.57
2022-12-09T02:01:34.934Z,16.80
2022-12-09T02:04:02.877Z,16.17
2022-12-09T02:06:29.974Z,18.17
2022-12-09T02:08:57.969Z,18.17
2022-12-09T02:11:38.691Z,18.97
2022-12-09T02:14:16.084Z,18.70
2022-12-09T02:17:04.335Z,19.27
2022-12-09T02:20:04.069Z,19.57
2022-12-09T02:22:45.283Z,18.70
2022-12-09T02:25:31.378Z,19.27
2022-12-09T02:28:23.995Z,19.43
2022-12-09T02:31:24.272Z,18.77
2022-12-09T02:34:06.669Z,20.77
2022-12-09T02:36:59.968Z,19.83
2022-12-09T02:39:51.711Z,19.33
2022-12-09T02:42:22.887Z,20.53
2022-12-09T02:44:51.481Z,19.97
2022-12-09T02:47:25.209Z,18.67
2022-12-09T02:49:57.365Z,17.37
2022-12-09T02:52:29.911Z,17.60
2022-12-09T02:55:00.428Z,17.27
2022-12-09T02:57:29.635Z,20.20
2022-12-09T02:59:56.833Z,19.47
2022-12-09T03:02:31.648Z,21.03
2022-12-09T03:05:25.285Z,19.03
2022-12-09T03:08:08.496Z,19.33
2022-12-09T03:10:43.581Z,18.37
2022-12-09T03:13:27.447Z,18.47
2022-12-09T03:16:00.242Z,19.07
2022-12-09T03:18:30.119Z,18.77
2022-12-09T03:20:57.343Z,18.50
2022-12-09T03:23:28.382Z,19.13
2022-12-09T03:25:56.186Z,17.20
2022-12-09T03:28:35.081Z,19.13
2022-12-09T03:31:06.185Z,18.33
2022-12-09T03:33:33.539Z,17.07
2022-12-09T03:36:06.306Z,17.97
2022-12-09T03:38:37.924Z,18.03
2022-12-09T03:41:17.261Z,17.90
2022-12-09T03:43:49.379Z,18.30
2022-12-09T03:46:16.354Z,17.50
2022-12-09T03:48:43.071Z,18.53
2022-12-09T03:51:19.423Z,17.33
2022-12-09T03:53:51.605Z,17.43
2022-12-09T03:56:23.033Z,18.77
2022-12-09T03:58:53.823Z,19.27
2022-12-09T04:01:25.236Z,19.17
2022-12-09T04:03:54.512Z,18.80
2022-12-09T04:06:22.038Z,20.23
2022-12-09T04:08:48.758Z,22.50
2022-12-09T04:11:15.922Z,20.00
2022-12-09T04:13:42.664Z,19.00
2022-12-09T04:16:10.039Z,18.80
2022-12-09T04:18:37.231Z,19.13
2022-12-09T04:21:08.706Z,19.07
2022-12-09T04:23:40.987Z,18.13
2022-12-09T04:26:14.829Z,18.23
2022-12-09T04:28:41.503Z,18.10
2022-12-09T04:31:15.763Z,18.20
2022-12-09T04:33:43.423Z,18.40
2022-12-09T04:36:13.053Z,17.53
2022-12-09T04:38:40.860Z,16.87
2022-12-09T04:41:08.030Z,17.97
2022-12-09T04:43:35.262Z,17.87
2022-12-09T04:46:07.271Z,17.80
2022-12-09T04:48:34.296Z,16.97
2022-12-09T04:51:03.955Z,17.77
2022-12-09T04:53:30.996Z,17.13
2022-12-09T04:56:09.219Z,17.97
2022-12-09T04:58:36.149Z,17.43
2022-12-09T05:01:11.441Z,20.97
2022-12-09T05:03:38.736Z,18.93
2022-12-09T05:06:07.229Z,16.73
2022-12-09T05:08:35.065Z,18.43
2022-12-09T05:11:02.503Z,17.63
2022-12-09T05:13:29.827Z,18.00
2022-12-09T05:16:10.667Z,18.13
2022-12-09T05:18:43.166Z,18.60
2022-12-09T05:21:13.133Z,18.73
2022-12-09T05:23:40.082Z,19.90
2022-12-09T05:26:10.635Z,18.13
2022-12-09T05:28:37.895Z,18.53
2022-12-09T05:31:07.834Z,18.57
2022-12-09T05:33:35.148Z,18.70
2022-12-09T05:36:02.138Z,19.90
2022-12-09T05:38:30.026Z,19.83
2022-12-09T05:41:00.028Z,20.10
2022-12-09T05:43:27.082Z,19.27
2022-12-09T05:45:54.102Z,21.10
2022-12-09T05:48:21.081Z,20.50
2022-12-09T05:50:57.667Z,19.33
2022-12-09T05:53:24.786Z,18.83
2022-12-09T05:55:51.491Z,21.10
2022-12-09T05:58:18.373Z,20.73
2022-12-09T06:00:45.334Z,21.13
2022-12-09T06:03:13.006Z,20.17
2022-12-09T06:05:41.235Z,22.13
2022-12-09T06:08:08.556Z,20.23
2022-12-09T06:10:38.580Z,20.37
2022-12-09T06:13:05.488Z,21.50
2022-12-09T06:15:33.968Z,20.83
2022-12-09T06:18:02.062Z,20.37
2022-12-09T06:20:29.816Z,20.93
2022-12-09T06:22:57.004Z,20.00
2022-12-09T06:25:23.960Z,20.30
2022-12-09T06:27:52.585Z,19.47
2022-12-09T06:30:19.775Z,20.43
2022-12-09T06:32:46.768Z,19.33
2022-12-09T06:35:14.167Z,19.33
2022-12-09T06:37:41.647Z,18.90
2022-12-09T06:40:09.430Z,19.60
2022-12-09T06:42:36.341Z,20.40
2022-12-09T06:45:04.039Z,19.23
2022-12-09T06:47:31.305Z,19.80
2022-12-09T06:50:06.530Z,19.13
2022-12-09T06:52:37.593Z,18.97
2022-12-09T06:55:06.244Z,19.70
2022-12-09T06:57:33.463Z,21.07
2022-12-09T07:00:01.382Z,19.30
2022-12-09T07:02:32.723Z,19.13
2022-12-09T07:05:02.890Z,19.93
2022-12-09T07:07:29.919Z,19.60
2022-12-09T07:09:57.037Z,19.23
2022-12-09T07:12:24.111Z,19.60
2022-12-09T07:14:50.951Z,18.47
2022-12-09T07:17:19.992Z,19.43
2022-12-09T07:19:47.381Z,20.20
2022-12-09T07:22:14.602Z,20.13
2022-12-09T07:24:41.944Z,18.87
2022-12-09T07:27:18.674Z,21.43
2022-12-09T07:29:47.042Z,19.73
2022-12-09T07:32:14.657Z,20.97
2022-12-09T07:34:41.633Z,20.50
2022-12-09T07:37:09.193Z,20.17
2022-12-09T07:39:36.151Z,20.77
2022-12-09T07:42:03.123Z,20.57
2022-12-09T07:44:31.067Z,20.10
2022-12-09T07:46:58.557Z,20.40
2022-12-09T07:49:25.885Z,19.37
2022-12-09T07:51:52.856Z,20.07
2022-12-09T07:54:20.504Z,20.00
2022-12-09T07:56:48.138Z,19.97
2022-12-09T07:59:16.143Z,20.33
2022-12-09T08:01:45.378Z,20.33
2022-12-09T08:04:12.715Z,20.00
2022-12-09T08:06:40.391Z,20.97
2022-12-09T08:09:11.397Z,20.40
2022-12-09T08:11:38.699Z,19.43
2022-12-09T08:14:12.156Z,20.43
2022-12-09T08:16:40.634Z,18.60
2022-12-09T08:19:08.108Z,18.70
2022-12-09T08:21:35.129Z,17.47
2022-12-09T08:24:05.864Z,16.83
2022-12-09T08:26:34.074Z,16.40
2022-12-09T08:29:01.799Z,16.20
2022-12-09T08:31:29.100Z,16.87
2022-12-09T08:33:56.993Z,17.40
2022-12-09T08:36:28.435Z,16.83
2022-12-09T08:38:56.137Z,17.67
2022-12-09T08:41:35.394Z,18.03
2022-12-09T08:44:05.551Z,17.63
2022-12-09T08:46:33.882Z,18.17
2022-12-09T08:49:03.799Z,17.47
2022-12-09T08:51:31.825Z,17.97
2022-12-09T08:54:00.262Z,18.13
2022-12-09T08:56:27.744Z,18.20
2022-12-09T08:58:55.631Z,17.97
2022-12-09T09:01:32.347Z,17.30
2022-12-09T09:04:09.612Z,17.23
2022-12-09T09:06:42.448Z,17.57
2022-12-09T09:09:11.775Z,17.13
2022-12-09T09:11:39.700Z,16.50
2022-12-09T09:14:09.531Z,17.03
2022-12-09T09:16:39.033Z,18.20
2022-12-09T09:19:06.985Z,17.40
2022-12-09T09:21:34.674Z,17.57
2022-12-09T09:24:02.334Z,16.97
2022-12-09T09:26:29.742Z,15.77
2022-12-09T09:28:57.407Z,16.03
2022-12-09T09:31:25.793Z,17.33
2022-12-09T09:33:53.288Z,16.57
2022-12-09T09:36:23.643Z,16.50
2022-12-09T09:38:53.978Z,16.23
2022-12-09T09:41:51.759Z,16.17
2022-12-09T09:44:43.278Z,16.13
2022-12-09T09:47:17.807Z,16.90
2022-12-09T09:50:07.871Z,16.33
2022-12-09T09:52:41.465Z,16.10
2022-12-09T09:55:21.274Z,17.73
2022-12-09T09:58:00.267Z,17.77
2022-12-09T10:00:34.372Z,18.13
2022-12-09T10:03:09.489Z,17.80
2022-12-09T10:05:53.995Z,18.03
2022-12-09T10:08:59.237Z,19.07
2022-12-09T10:11:37.736Z,17.43
2022-12-09T10:14:19.218Z,19.30
2022-12-09T10:17:09.430Z,17.90
2022-12-09T10:19:47.809Z,16.17
2022-12-09T10:22:28.253Z,15.97
2022-12-09T10:24:57.974Z,16.23
2022-12-09T10:27:33.672Z,15.63
2022-12-09T10:30:05.767Z,15.90
2022-12-09T10:32:35.889Z,15.57
2022-12-09T10:35:33.677Z,15.50
2022-12-09T10:38:12.556Z,15.57
2022-12-09T10:40:46.009Z,15.60
2022-12-09T10:43:44.233Z,15.50
2022-12-09T10:46:18.465Z,14.73
2022-12-09T10:48:46.353Z,15.03
2022-12-09T10:51:25.349Z,14.97
2022-12-09T10:53:56.157Z,14.37
2022-12-09T10:56:27.474Z,15.73
2022-12-09T10:59:21.070Z,15.17
2022-12-09T11:02:04.560Z,14.83
2022-12-09T11:04:34.422Z,15.03
2022-12-09T11:07:12.338Z,14.97
2022-12-09T11:09:43.633Z,15.63
2022-12-09T11:12:27.552Z,14.80
2022-12-09T11:15:21.931Z,14.13
2022-12-09T11:17:58.555Z,14.00
2022-12-09T11:20:31.553Z,13.40
2022-12-09T11:23:12.391Z,13.17
2022-12-09T11:25:55.727Z,11.87
2022-12-09T11:29:22.869Z,12.73
2022-12-09T11:31:49.941Z,15.67
2022-12-09T11:34:27.399Z,14.67
2022-12-09T11:36:57.710Z,14.67
2022-12-09T11:39:27.020Z,14.20
2022-12-09T11:43:03.256Z,14.73
2022-12-09T11:45:38.834Z,14.10
2022-12-09T11:48:29.853Z,14.00
2022-12-09T11:51:01.815Z,14.60
2022-12-09T11:53:33.779Z,13.43
2022-12-09T11:56:12.016Z,13.07
2022-12-09T11:58:51.327Z,12.87
2022-12-09T12:01:26.181Z,13.40
2022-12-09T12:03:56.755Z,13.13
2022-12-09T12:06:27.747Z,12.87
2022-12-09T12:09:41.972Z,14.00
2022-12-09T12:12:22.414Z,13.47
2022-12-09T12:19:19.083Z,13.53
2022-12-09T12:21:51.762Z,14.20
2022-12-09T12:24:46.047Z,12.93
2022-12-09T12:27:18.379Z,13.97
2022-12-09T12:29:58.803Z,14.07
2022-12-09T12:32:48.887Z,14.93
2022-12-09T12:35:38.622Z,15.87
2022-12-09T12:38:08.316Z,15.63
2022-12-09T12:40:51.867Z,15.50
2022-12-09T12:44:15.055Z,14.77
2022-12-09T12:47:05.742Z,16.00
2022-12-09T12:50:16.650Z,15.97
2022-12-09T12:53:02.047Z,14.73
2022-12-09T12:56:02.055Z,13.87
2022-12-09T12:58:49.030Z,13.40
2022-12-09T13:01:48.233Z,14.07
2022-12-09T13:04:31.031Z,13.43
2022-12-09T13:07:07.303Z,13.40
2022-12-09T13:09:50.019Z,12.57
2022-12-09T13:12:46.162Z,13.20
2022-12-09T13:15:16.099Z,13.30
2022-12-09T13:17:44.904Z,13.47
2022-12-09T13:20:43.424Z,16.13
2022-12-09T13:23:41.125Z,20.63
2022-12-09T13:26:29.435Z,15.10
2022-12-09T13:29:14.866Z,15.40
2022-12-09T13:32:06.785Z,15.10
2022-12-09T13:34:44.250Z,13.67
2022-12-09T13:37:34.636Z,14.13
2022-12-09T13:40:03.210Z,13.90
2022-12-09T13:42:48.479Z,14.70
2022-12-09T13:45:24.385Z,14.20
2022-12-09T13:47:55.848Z,14.40
2022-12-09T13:50:57.636Z,13.67
2022-12-09T13:53:34.196Z,12.10
2022-12-09T13:56:12.676Z,12.97
2022-12-09T13:59:00.460Z,12.87
2022-12-09T14:05:47.347Z,12.50
2022-12-09T14:08:24.141Z,12.13
2022-12-09T14:10:52.924Z,12.67
2022-12-09T14:13:35.188Z,12.63
2022-12-09T14:16:27.850Z,12.77
2022-12-09T14:18:56.045Z,12.60
2022-12-09T14:21:27.676Z,13.60
2022-12-09T14:24:09.466Z,12.57
2022-12-09T14:26:37.564Z,12.97
2022-12-09T14:29:05.095Z,12.80
2022-12-09T14:31:51.308Z,13.70
2022-12-09T14:34:30.989Z,12.33
2022-12-09T14:38:00.737Z,14.17
2022-12-09T14:40:42.763Z,13.23
2022-12-09T14:43:38.160Z,12.77
2022-12-09T14:46:17.510Z,12.90
2022-12-09T14:48:52.479Z,13.50
2022-12-09T14:51:25.093Z,13.07
2022-12-09T14:54:14.596Z,12.40
2022-12-09T14:56:46.955Z,12.90
2022-12-09T14:59:24.442Z,12.70
2022-12-09T15:02:20.511Z,12.83
2022-12-09T15:04:48.859Z,12.43
2022-12-09T15:07:21.455Z,12.03
2022-12-09T15:09:57.090Z,12.40
2022-12-09T15:12:30.191Z,12.33
2022-12-09T15:15:03.685Z,12.90
2022-12-09T15:17:36.375Z,12.70
2022-12-09T15:20:04.175Z,12.23
2022-12-09T15:22:32.282Z,12.10
2022-12-09T15:24:59.836Z,12.33
2022-12-09T15:27:26.553Z,12.50
2022-12-09T15:29:54.382Z,13.77
2022-12-09T15:32:22.895Z,13.30
2022-12-09T15:34:49.602Z,13.10
2022-12-09T15:37:18.192Z,12.77
2022-12-09T15:40:02.262Z,12.43
2022-12-09T15:42:33.965Z,12.70
2022-12-09T15:45:15.635Z,12.70
2022-12-09T15:47:54.095Z,12.87
2022-12-09T15:50:35.083Z,13.47
2022-12-09T15:53:11.135Z,12.10
2022-12-09T15:55:45.957Z,13.63
2022-12-09T15:58:16.922Z,13.17
2022-12-09T16:00:48.667Z,13.73
2022-12-09T16:03:22.295Z,13.50
2022-12-09T16:05:54.690Z,13.17
2022-12-09T16:08:32.040Z,13.03
2022-12-09T16:11:03.871Z,13.60
2022-12-09T16:13:30.836Z,12.53
2022-12-09T16:16:01.436Z,14.30
2022-12-09T16:18:49.677Z,13.33
2022-12-09T16:21:16.423Z,13.23
2022-12-09T16:24:11.606Z,13.83
2022-12-09T16:26:44.510Z,13.33
2022-12-09T16:29:30.912Z,12.83
2022-12-09T16:32:27.932Z,12.00
2022-12-09T16:35:11.326Z,12.47
2022-12-09T16:38:13.858Z,12.63
2022-12-09T16:40:58.673Z,13.37
2022-12-09T16:43:27.567Z,13.30
2022-12-09T16:45:59.803Z,12.80
2022-12-09T16:48:29.454Z,12.90
2022-12-09T16:51:20.241Z,12.47
2022-12-09T16:53:49.589Z,13.27
2022-12-09T16:56:31.669Z,12.63
2022-12-09T16:58:59.676Z,13.37
2022-12-09T17:01:35.119Z,12.70
2022-12-09T17:04:05.186Z,12.83
2022-12-09T17:06:32.255Z,13.67
2022-12-09T17:08:59.003Z,12.97
2022-12-09T17:11:25.627Z,13.33
2022-12-09T17:13:52.574Z,14.17
2022-12-09T17:16:22.174Z,13.13
2022-12-09T17:18:49.534Z,14.53
2022-12-09T17:21:16.675Z,15.87
2022-12-09T17:23:44.162Z,15.00
2022-12-09T17:26:16.777Z,15.07
2022-12-09T17:28:44.392Z,14.40
2022-12-09T17:31:26.998Z,14.40
2022-12-09T17:33:56.159Z,12.80
2022-12-09T17:36:22.981Z,13.97
2022-12-09T17:38:49.605Z,14.70
2022-12-09T17:41:20.448Z,13.57
2022-12-09T17:43:47.567Z,14.60
2022-12-09T17:46:14.905Z,14.63
2022-12-09T17:48:41.981Z,13.60
2022-12-09T17:51:12.093Z,15.10
2022-12-09T17:53:40.601Z,14.33
2022-12-09T17:56:09.664Z,14.83
2022-12-09T17:58:36.429Z,13.97
2022-12-09T18:01:03.417Z,14.37
2022-12-09T18:03:54.484Z,13.50
2022-12-09T18:06:17.097Z,14.33
2022-12-09T18:08:43.686Z,14.27
2022-12-09T18:11:11.232Z,15.60
2022-12-09T18:13:38.143Z,15.87
2022-12-09T18:16:12.002Z,13.90
2022-12-09T18:18:39.871Z,13.57
2022-12-09T18:21:12.114Z,13.60
2022-12-09T18:23:42.097Z,14.57
2022-12-09T18:26:10.549Z,14.40
2022-12-09T18:29:32.861Z,14.37
2022-12-09T18:36:27.431Z,15.53
2022-12-09T18:38:54.788Z,14.37
2022-12-09T18:41:24.905Z,14.60
2022-12-09T18:43:52.981Z,14.03
2022-12-09T18:46:26.352Z,14.60
2022-12-09T18:49:05.377Z,14.30
2022-12-09T18:51:32.745Z,14.37
2022-12-09T18:54:00.787Z,15.40
2022-12-09T18:56:28.404Z,14.27
2022-12-09T18:59:11.779Z,14.63
2022-12-09T19:01:41.519Z,13.97
2022-12-09T19:04:16.047Z,13.80
2022-12-09T19:06:45.296Z,14.00
2022-12-09T19:09:17.797Z,15.43
2022-12-09T19:11:46.087Z,14.40
2022-12-09T19:14:14.046Z,16.27
2022-12-09T19:16:41.796Z,15.70
2022-12-09T19:19:10.908Z,15.20
2022-12-09T19:21:38.378Z,13.80
2022-12-09T19:24:05.392Z,14.90
2022-12-09T19:26:33.522Z,15.53
2022-12-09T19:29:03.437Z,15.73
2022-12-09T19:31:38.398Z,16.33
2022-12-09T19:34:12.879Z,19.63
2022-12-09T19:36:39.704Z,17.87
2022-12-09T19:39:08.300Z,17.63
2022-12-09T19:41:36.359Z,18.73
2022-12-09T19:44:04.733Z,19.57
2022-12-09T19:46:32.178Z,20.00
2022-12-09T19:48:59.714Z,20.47
2022-12-09T19:51:27.936Z,21.07
2022-12-09T19:53:57.615Z,21.80
2022-12-09T19:56:24.926Z,21.80
2022-12-09T19:58:52.176Z,22.43
2022-12-09T20:01:24.497Z,22.67
2022-12-09T20:03:56.696Z,21.03
2022-12-09T20:06:23.895Z,21.50
2022-12-09T20:08:50.494Z,21.63
2022-12-09T20:11:25.164Z,21.97
2022-12-09T20:13:52.771Z,20.60
2022-12-09T20:16:22.128Z,21.40
2022-12-09T20:18:49.409Z,21.57
2022-12-09T20:21:18.045Z,21.40
2022-12-09T20:23:45.442Z,22.17
2022-12-09T20:26:24.775Z,21.57
2022-12-09T20:28:53.420Z,22.33
2022-12-09T20:31:30.864Z,22.83
2022-12-09T20:34:04.056Z,22.57
2022-12-09T20:36:35.368Z,20.40
2022-12-09T20:39:05.892Z,21.37
2022-12-09T20:41:32.489Z,22.63
2022-12-09T20:44:02.659Z,22.83
2022-12-09T20:46:32.079Z,23.67
2022-12-09T20:48:59.534Z,23.33
2022-12-09T20:51:29.761Z,24.10
2022-12-09T20:53:57.313Z,24.73
2022-12-09T20:56:25.826Z,25.43
2022-12-09T20:58:53.600Z,27.40
2022-12-09T21:01:33.088Z,27.07
2022-12-09T21:04:01.637Z,27.17
2022-12-09T21:06:31.127Z,27.13
2022-12-09T21:09:02.436Z,28.83
2022-12-09T21:11:29.216Z,28.37
2022-12-09T21:14:01.471Z,28.80
2022-12-09T21:16:30.973Z,28.87
2022-12-09T21:19:02.548Z,29.13
2022-12-09T21:21:34.922Z,29.60
2022-12-09T21:24:01.936Z,30.50
2022-12-09T21:26:30.090Z,28.27
2022-12-09T21:28:59.898Z,27.07
2022-12-09T21:31:32.340Z,28.40
2022-12-09T21:34:03.817Z,27.07
2022-12-09T21:36:35.225Z,27.10
2022-12-09T21:39:02.562Z,29.37
2022-12-09T21:41:31.463Z,28.20
2022-12-09T21:43:58.594Z,27.57
2022-12-09T21:46:27.868Z,28.03
2022-12-09T21:49:00.108Z,28.77
2022-12-09T21:51:29.986Z,27.63
2022-12-09T21:53:57.388Z,26.53
2022-12-09T21:56:26.389Z,30.97
2022-12-09T21:58:55.347Z,28.70
2022-12-09T22:01:28.106Z,29.23
2022-12-09T22:03:55.748Z,27.07
2022-12-09T22:06:23.239Z,31.03
2022-12-09T22:08:50.311Z,29.53
2022-12-09T22:11:25.462Z,28.17
2022-12-09T22:13:53.144Z,30.90
2022-12-09T22:16:23.098Z,27.73
2022-12-09T22:18:52.615Z,28.50
2022-12-09T22:21:25.717Z,26.97
2022-12-09T22:23:57.735Z,28.80
2022-12-09T22:26:26.287Z,27.80
2022-12-09T22:28:53.466Z,28.23
2022-12-09T22:31:27.653Z,28.23
2022-12-09T22:33:55.895Z,29.20
2022-12-09T22:36:29.605Z,27.07
2022-12-09T22:38:56.267Z,28.03
2022-12-09T22:41:25.838Z,28.10
2022-12-09T22:43:54.192Z,28.33
2022-12-09T22:46:26.533Z,28.33
2022-12-09T22:48:53.291Z,28.87
2022-12-09T22:51:30.815Z,30.07
2022-12-09T22:53:58.240Z,29.37
2022-12-09T22:56:25.710Z,29.80
2022-12-09T22:58:52.531Z,29.20
2022-12-09T23:01:28.678Z,29.80
2022-12-09T23:03:57.349Z,29.73
2022-12-09T23:06:25.364Z,28.17
2022-12-09T23:08:52.347Z,33.40
2022-12-09T23:11:25.561Z,29.23
2022-12-09T23:13:55.944Z,30.07
2022-12-09T23:16:25.138Z,29.53
2022-12-09T23:18:52.729Z,30.17
2022-12-09T23:21:25.310Z,30.27
2022-12-09T23:23:53.472Z,30.67
2022-12-09T23:26:21.811Z,30.83
2022-12-09T23:28:50.348Z,30.77
2022-12-09T23:31:19.689Z,31.40
2022-12-09T23:33:48.496Z,31.50
2022-12-09T23:36:21.262Z,32.43
2022-12-09T23:38:49.617Z,30.37
2022-12-09T23:41:18.373Z,28.87
2022-12-09T23:43:46.659Z,26.93
2022-12-09T23:46:16.325Z,25.27
2022-12-09T23:48:44.536Z,25.77
2022-12-09T23:51:20.006Z,25.33
2022-12-09T23:53:48.635Z,23.33
2022-12-09T23:56:20.608Z,23.53
2022-12-09T23:58:52.377Z,21.90
